Time;durP1;ratioP1;P1;durP2;ratioP2;P2;SDS_P1;SDS_P2;PMS_P1;PMS_P2;Temp;Humidity;BMP_temperature;BMP_pressure;BME280_temperature;BME280_humidity;BME280_pressure;Samples;Min_cycle;Max_cycle;Signal;HPM_P1;HPM_P2
2023/06/27 00:00:13;;;;;;;6.13;5.60;;;21.40;99.90;;;;;;5028707;28;20201;-85
2023/06/27 00:02:40;;;;;;;6.37;5.87;;;21.40;99.90;;;;;;5018358;28;20176;-83
2023/06/27 00:05:07;;;;;;;6.37;5.87;;;21.50;99.90;;;;;;5018909;28;20220;-85
2023/06/27 00:07:38;;;;;;;7.00;6.40;;;21.50;99.90;;;;;;5000536;28;20177;-83
2023/06/27 00:10:04;;;;;;;6.63;6.03;;;21.50;99.90;;;;;;5000936;28;20180;-83
2023/06/27 00:12:30;;;;;;;6.60;6.10;;;21.40;99.90;;;;;;4996923;28;20276;-85
2023/06/27 00:14:56;;;;;;;7.23;6.47;;;21.20;99.90;;;;;;5013679;28;20221;-83
2023/06/27 00:17:23;;;;;;;6.83;6.23;;;21.20;99.90;;;;;;5014106;28;20173;-84
2023/06/27 00:19:49;;;;;;;6.47;5.87;;;21.10;99.90;;;;;;5013867;28;20200;-82
2023/06/27 00:22:15;;;;;;;7.13;6.17;;;21.10;99.90;;;;;;4996512;28;20541;-84
2023/06/27 00:24:41;;;;;;;6.90;6.13;;;21.10;99.90;;;;;;5014249;28;20229;-84
2023/06/27 00:27:07;;;;;;;7.13;6.40;;;21.10;99.90;;;;;;5016830;28;20198;-84
2023/06/27 00:29:33;;;;;;;7.23;6.63;;;21.10;99.90;;;;;;5015233;28;20601;-83
2023/06/27 00:31:59;;;;;;;7.50;6.80;;;21.10;99.90;;;;;;5013976;28;20184;-85
2023/06/27 00:34:24;;;;;;;7.17;6.57;;;21.20;99.90;;;;;;5014150;28;20626;-84
2023/06/27 00:36:50;;;;;;;6.53;6.03;;;21.20;99.90;;;;;;4999994;28;20185;-83
2023/06/27 00:39:16;;;;;;;7.03;6.43;;;21.20;99.90;;;;;;4999856;28;20307;-84
2023/06/27 00:41:42;;;;;;;7.63;7.00;;;21.10;99.90;;;;;;5000015;28;20279;-83
2023/06/27 00:44:08;;;;;;;7.23;6.60;;;21.10;99.90;;;;;;5017473;28;20261;-83
2023/06/27 00:46:38;;;;;;;7.10;6.50;;;21.10;99.90;;;;;;4999879;28;20268;-82
2023/06/27 00:49:07;;;;;;;6.53;5.97;;;21.10;99.90;;;;;;5017539;28;20520;-83
2023/06/27 00:51:33;;;;;;;7.27;6.67;;;21.10;99.90;;;;;;4999795;28;20220;-83
2023/06/27 00:53:59;;;;;;;7.13;6.53;;;21.10;99.90;;;;;;5017539;28;20169;-83
2023/06/27 00:56:26;;;;;;;7.00;6.40;;;21.00;99.90;;;;;;5017578;28;20196;-83
2023/06/27 00:58:54;;;;;;;7.33;6.63;;;21.00;99.90;;;;;;5000484;28;20212;-84
2023/06/27 01:01:20;;;;;;;7.20;6.60;;;21.00;99.90;;;;;;5016891;28;20204;-83
2023/06/27 01:03:46;;;;;;;7.90;7.20;;;21.00;99.90;;;;;;5018068;28;20582;-84
2023/06/27 01:06:18;;;;;;;7.50;6.80;;;21.00;99.90;;;;;;5017284;28;20717;-84
2023/06/27 01:08:56;;;;;;;7.03;6.47;;;21.00;99.90;;;;;;5000166;28;20165;-85
2023/06/27 01:11:28;;;;;;;7.23;6.43;;;21.00;99.90;;;;;;5017214;28;20165;-82
2023/06/27 01:13:59;;;;;;;7.60;6.97;;;21.00;99.90;;;;;;5018112;28;20297;-84
2023/06/27 01:16:29;;;;;;;7.37;6.73;;;21.00;99.90;;;;;;5017260;28;20190;-84
2023/06/27 01:18:57;;;;;;;7.00;6.40;;;21.00;99.90;;;;;;4998814;28;20704;-85
2023/06/27 01:21:28;;;;;;;7.20;6.60;;;21.10;99.90;;;;;;4998712;28;20201;-84
2023/06/27 01:23:54;;;;;;;6.70;6.10;;;21.00;99.90;;;;;;4998840;28;20732;-85
2023/06/27 01:26:20;;;;;;;7.23;6.63;;;21.00;99.90;;;;;;5021160;28;20244;-84
2023/06/27 01:28:47;;;;;;;6.80;6.20;;;20.90;99.90;;;;;;5022070;28;20180;-83
2023/06/27 01:31:26;;;;;;;7.20;6.60;;;20.90;99.90;;;;;;5019050;28;20177;-83
2023/06/27 01:34:05;;;;;;;6.93;6.37;;;20.90;99.90;;;;;;5023302;28;20149;-83
2023/06/27 01:36:57;;;;;;;6.93;6.27;;;20.80;99.90;;;;;;5009179;28;20260;-85
2023/06/27 01:39:28;;;;;;;7.17;6.57;;;20.80;99.90;;;;;;5019247;28;20208;-84
2023/06/27 01:42:02;;;;;;;7.73;6.90;;;20.80;99.90;;;;;;5023367;28;20177;-83
2023/06/27 01:44:31;;;;;;;6.90;6.20;;;20.90;99.90;;;;;;5023042;28;20181;-85
2023/06/27 01:46:57;;;;;;;6.63;6.03;;;20.90;99.90;;;;;;5039923;28;20165;-84
2023/06/27 01:49:24;;;;;;;7.27;6.67;;;20.90;99.90;;;;;;5023624;28;20233;-82
2023/06/27 01:51:49;;;;;;;6.90;6.30;;;20.90;99.90;;;;;;5040536;28;20169;-85
2023/06/27 01:54:15;;;;;;;7.37;6.57;;;20.90;99.90;;;;;;5040997;28;20150;-84
2023/06/27 01:56:41;;;;;;;7.03;6.40;;;20.90;99.90;;;;;;5040242;28;20185;-84
2023/06/27 01:59:07;;;;;;;6.80;6.30;;;20.80;99.90;;;;;;5038699;28;20216;-82
2023/06/27 02:01:32;;;;;;;7.97;7.13;;;20.80;99.90;;;;;;5022490;28;20181;-85
2023/06/27 02:03:58;;;;;;;6.77;6.17;;;20.80;99.90;;;;;;5040226;28;20177;-83
2023/06/27 02:06:24;;;;;;;7.50;6.57;;;20.90;99.90;;;;;;5040433;28;20168;-84
2023/06/27 02:08:50;;;;;;;7.60;6.90;;;20.90;99.90;;;;;;5035987;28;20173;-85
2023/06/27 02:11:15;;;;;;;6.73;6.00;;;20.90;99.90;;;;;;5021977;28;20184;-84
2023/06/27 02:13:41;;;;;;;6.80;6.23;;;20.90;99.90;;;;;;5019854;28;20176;-85
2023/06/27 02:16:07;;;;;;;7.57;6.80;;;20.80;99.90;;;;;;5016140;28;20537;-84
2023/06/27 02:18:32;;;;;;;7.63;6.80;;;20.80;99.90;;;;;;5016352;28;20170;-86
2023/06/27 02:20:58;;;;;;;8.37;6.80;;;20.80;99.90;;;;;;5016411;28;20258;-85
2023/06/27 02:23:25;;;;;;;7.77;7.07;;;20.80;99.90;;;;;;5000264;28;20181;-85
2023/06/27 02:25:51;;;;;;;7.50;6.27;;;20.80;99.90;;;;;;5015872;28;20225;-86
2023/06/27 02:28:17;;;;;;;6.90;6.30;;;20.70;99.90;;;;;;4997761;28;20173;-85
2023/06/27 02:30:43;;;;;;;6.93;6.33;;;20.70;99.90;;;;;;5014990;28;20181;-86
2023/06/27 02:33:08;;;;;;;7.00;6.37;;;20.70;99.90;;;;;;4997480;28;20173;-86
2023/06/27 02:35:34;;;;;;;7.33;6.70;;;20.70;99.90;;;;;;5015353;28;20200;-85
2023/06/27 02:38:00;;;;;;;6.47;5.97;;;20.70;99.90;;;;;;5021934;28;20169;-84
2023/06/27 02:40:28;;;;;;;7.03;6.37;;;20.70;99.90;;;;;;5000166;28;20316;-85
2023/06/27 02:42:54;;;;;;;6.77;6.17;;;20.70;99.90;;;;;;4999284;28;20644;-85
2023/06/27 02:45:19;;;;;;;6.80;6.20;;;20.70;99.90;;;;;;5014865;28;20188;-84
2023/06/27 02:47:45;;;;;;;7.00;6.40;;;20.80;99.90;;;;;;5014563;28;20252;-85
2023/06/27 02:50:11;;;;;;;7.33;6.73;;;20.80;99.90;;;;;;5014569;28;20199;-84
2023/06/27 02:52:36;;;;;;;6.73;6.13;;;20.80;99.90;;;;;;5014506;28;20183;-82
2023/06/27 02:55:02;;;;;;;7.20;6.60;;;20.90;99.90;;;;;;5014311;28;20173;-82
2023/06/27 02:57:29;;;;;;;7.50;6.63;;;20.90;99.90;;;;;;5013572;28;20185;-82
2023/06/27 02:59:55;;;;;;;6.73;6.13;;;20.90;99.90;;;;;;4996576;28;20208;-82
2023/06/27 03:02:21;;;;;;;7.13;6.53;;;21.00;99.90;;;;;;5014142;28;20232;-83
2023/06/27 03:04:47;;;;;;;7.70;7.00;;;21.00;99.90;;;;;;5017490;28;20181;-82
2023/06/27 03:07:14;;;;;;;7.33;6.63;;;21.00;99.90;;;;;;5015462;28;20204;-85
2023/06/27 03:09:39;;;;;;;7.40;6.70;;;21.00;99.90;;;;;;4997584;28;20177;-83
2023/06/27 03:12:06;;;;;;;7.77;7.07;;;21.00;99.90;;;;;;5022117;28;20617;-85
2023/06/27 03:14:31;;;;;;;7.53;6.93;;;21.00;99.90;;;;;;5027081;28;20227;-84
2023/06/27 03:16:57;;;;;;;7.50;6.80;;;20.90;99.90;;;;;;5030530;28;20173;-83
2023/06/27 03:19:23;;;;;;;9.17;7.63;;;20.80;99.90;;;;;;5034755;28;20197;-83
2023/06/27 03:21:48;;;;;;;7.23;6.60;;;20.80;99.90;;;;;;4999653;28;20589;-84
2023/06/27 03:24:14;;;;;;;7.80;7.10;;;20.80;99.90;;;;;;5014129;28;20181;-84
2023/06/27 03:26:40;;;;;;;7.83;7.00;;;20.70;99.90;;;;;;5014339;28;20236;-83
2023/06/27 03:29:06;;;;;;;7.57;6.87;;;20.70;99.90;;;;;;5016830;28;20184;-85
2023/06/27 03:31:31;;;;;;;8.23;7.40;;;20.70;99.90;;;;;;5015683;28;20185;-85
2023/06/27 03:33:59;;;;;;;7.87;7.13;;;20.70;99.90;;;;;;5013918;28;20180;-86
2023/06/27 03:36:25;;;;;;;7.80;6.93;;;20.80;99.90;;;;;;5013851;28;20169;-85
2023/06/27 03:38:51;;;;;;;8.20;7.30;;;20.60;99.90;;;;;;4996041;28;20177;-85
2023/06/27 03:41:18;;;;;;;7.87;7.07;;;20.60;99.90;;;;;;4995972;28;20208;-85
2023/06/27 03:43:43;;;;;;;6.90;6.30;;;20.60;99.90;;;;;;5015606;28;20173;-84
2023/06/27 03:46:14;;;;;;;8.47;7.73;;;20.60;99.90;;;;;;5017272;28;20176;-85
2023/06/27 03:48:40;;;;;;;7.40;6.70;;;20.50;99.90;;;;;;5013943;28;20153;-85
2023/06/27 03:51:05;;;;;;;8.43;7.63;;;20.50;99.90;;;;;;5013631;28;20660;-86
2023/06/27 03:53:31;;;;;;;8.53;7.73;;;20.50;99.90;;;;;;4995887;28;20184;-86
2023/06/27 03:55:57;;;;;;;6.90;6.40;;;20.50;99.90;;;;;;5021666;28;20173;-84
2023/06/27 03:58:22;;;;;;;8.20;7.40;;;20.50;99.90;;;;;;5020397;28;20173;-86
2023/06/27 04:00:55;;;;;;;7.83;7.07;;;20.50;99.90;;;;;;4995828;28;20282;-85
2023/06/27 04:03:21;;;;;;;7.50;6.60;;;20.40;99.90;;;;;;5013483;28;20158;-85
2023/06/27 04:05:47;;;;;;;7.50;6.80;;;20.40;99.90;;;;;;4995633;28;20207;-85
2023/06/27 04:08:13;;;;;;;7.30;6.60;;;20.50;99.90;;;;;;5013202;28;20183;-85
2023/06/27 04:10:42;;;;;;;7.43;6.70;;;20.50;99.90;;;;;;5017224;28;20169;-86
2023/06/27 04:13:08;;;;;;;6.97;6.37;;;20.60;99.90;;;;;;5018557;28;20164;-83
2023/06/27 04:15:39;;;;;;;7.23;6.53;;;20.60;99.90;;;;;;5000688;28;20599;-86
2023/06/27 04:18:06;;;;;;;7.20;6.50;;;20.70;99.90;;;;;;5019875;28;20161;-85
2023/06/27 04:20:32;;;;;;;7.33;6.63;;;20.80;99.90;;;;;;5017175;28;20545;-86
2023/06/27 04:22:57;;;;;;;7.00;6.50;;;20.90;99.90;;;;;;5017447;28;20173;-86
2023/06/27 04:25:25;;;;;;;7.67;6.57;;;20.90;99.90;;;;;;5017365;28;20262;-86
2023/06/27 04:27:51;;;;;;;6.80;6.20;;;21.00;99.90;;;;;;5017643;28;20677;-84
2023/06/27 04:30:17;;;;;;;7.10;6.50;;;21.10;99.90;;;;;;5017392;28;20173;-85
2023/06/27 04:32:43;;;;;;;8.30;6.20;;;21.10;99.90;;;;;;4999453;28;20211;-84
2023/06/27 04:35:09;;;;;;;7.03;6.33;;;21.10;99.90;;;;;;5017104;28;20265;-85
2023/06/27 04:37:37;;;;;;;6.73;5.87;;;21.10;99.90;;;;;;5017249;28;20201;-86
2023/06/27 04:40:03;;;;;;;6.83;6.20;;;21.10;99.90;;;;;;5018084;28;20224;-84
2023/06/27 04:42:28;;;;;;;6.67;5.90;;;21.10;99.90;;;;;;5026234;28;20256;-83
2023/06/27 04:44:55;;;;;;;6.40;5.90;;;21.10;99.90;;;;;;5019355;28;20565;-84
2023/06/27 04:47:22;;;;;;;6.73;6.07;;;21.20;99.90;;;;;;5000353;28;20192;-86
2023/06/27 04:49:48;;;;;;;6.10;5.60;;;21.20;99.90;;;;;;5017555;28;20166;-86
2023/06/27 04:52:14;;;;;;;6.83;6.23;;;21.30;99.90;;;;;;5018251;28;20241;-84
2023/06/27 04:54:40;;;;;;;6.23;5.73;;;21.30;99.90;;;;;;5028822;28;20173;-84
2023/06/27 04:57:06;;;;;;;11.57;5.87;;;21.40;99.90;;;;;;5001613;28;20212;-86
2023/06/27 04:59:32;;;;;;;6.07;5.57;;;21.50;99.90;;;;;;5017421;28;20193;-83
2023/06/27 05:01:58;;;;;;;6.87;6.23;;;21.50;99.90;;;;;;5000573;28;20200;-84
2023/06/27 05:04:23;;;;;;;6.90;6.30;;;21.60;99.90;;;;;;5017005;28;20169;-84
2023/06/27 05:06:49;;;;;;;7.40;6.23;;;21.70;99.90;;;;;;5017074;28;20173;-86
2023/06/27 05:09:15;;;;;;;6.90;6.20;;;21.70;99.90;;;;;;5019124;28;20271;-83
2023/06/27 05:11:40;;;;;;;5.90;5.40;;;21.90;99.90;;;;;;5016728;28;20257;-82
2023/06/27 05:14:06;;;;;;;7.23;6.00;;;21.80;99.90;;;;;;5016932;28;20179;-84
2023/06/27 05:16:32;;;;;;;6.63;6.03;;;21.90;99.90;;;;;;5016610;28;20544;-83
2023/06/27 05:19:00;;;;;;;6.50;5.93;;;21.90;99.90;;;;;;5016326;28;20525;-85
2023/06/27 05:21:26;;;;;;;7.83;7.03;;;22.00;99.90;;;;;;5015355;28;20243;-85
2023/06/27 05:23:52;;;;;;;9.63;8.53;;;22.10;99.90;;;;;;5016638;28;20177;-83
2023/06/27 05:26:17;;;;;;;6.90;6.30;;;22.30;99.90;;;;;;5015982;28;20221;-85
2023/06/27 05:28:43;;;;;;;7.33;6.63;;;22.30;99.90;;;;;;4999406;28;20273;-82
2023/06/27 05:31:09;;;;;;;7.03;6.40;;;22.30;99.90;;;;;;5018593;28;20185;-86
2023/06/27 05:33:35;;;;;;;6.78;5.82;;;22.20;99.90;;;;;;5018486;28;20528;-83
2023/06/27 05:36:00;;;;;;;6.63;6.00;;;22.30;99.90;;;;;;5017350;28;20173;-82
2023/06/27 05:38:26;;;;;;;6.50;5.90;;;22.20;99.90;;;;;;5016987;28;20173;-83
2023/06/27 05:40:52;;;;;;;7.13;6.27;;;22.20;99.90;;;;;;5019107;28;20216;-84
2023/06/27 05:43:17;;;;;;;8.70;5.40;;;22.30;99.90;;;;;;5018293;28;20204;-85
2023/06/27 05:45:43;;;;;;;6.10;5.60;;;22.30;99.90;;;;;;5022959;28;20204;-84
2023/06/27 05:48:09;;;;;;;6.23;5.73;;;22.40;99.90;;;;;;5023578;28;20169;-86
2023/06/27 05:50:35;;;;;;;5.87;5.40;;;22.50;99.90;;;;;;5000554;28;20185;-85
2023/06/27 05:53:01;;;;;;;5.50;5.07;;;22.60;99.90;;;;;;5018296;28;20560;-85
2023/06/27 05:55:27;;;;;;;5.70;5.20;;;22.60;99.90;;;;;;5017418;28;20184;-85
2023/06/27 05:57:55;;;;;;;5.70;5.20;;;22.70;99.90;;;;;;5018017;28;20205;-84
2023/06/27 06:00:21;;;;;;;5.95;5.35;;;22.80;99.90;;;;;;5000472;28;20248;-84
2023/06/27 06:02:47;;;;;;;8.00;5.28;;;22.80;99.90;;;;;;5018779;28;20174;-83
2023/06/27 06:05:14;;;;;;;6.25;5.65;;;22.90;99.90;;;;;;5019877;28;20249;-84
2023/06/27 06:07:44;;;;;;;5.97;5.47;;;22.90;99.90;;;;;;5001356;28;20203;-84
2023/06/27 06:10:11;;;;;;;5.22;4.82;;;23.00;99.90;;;;;;5017733;28;20177;-84
2023/06/27 06:12:38;;;;;;;5.68;5.28;;;23.00;99.90;;;;;;5022634;28;20189;-85
2023/06/27 06:15:04;;;;;;;6.83;5.20;;;23.10;99.90;;;;;;5020145;28;20181;-84
2023/06/27 06:17:30;;;;;;;6.40;5.90;;;23.10;99.90;;;;;;5021655;28;20173;-84
2023/06/27 06:19:56;;;;;;;6.60;5.90;;;23.20;99.90;;;;;;5019793;28;20240;-84
2023/06/27 06:22:22;;;;;;;7.32;5.80;;;23.20;99.90;;;;;;5024839;28;20272;-84
2023/06/27 06:24:48;;;;;;;5.60;5.10;;;23.20;99.90;;;;;;5017233;28;20677;-85
2023/06/27 06:27:14;;;;;;;5.97;5.43;;;23.30;99.90;;;;;;5016310;28;20161;-85
2023/06/27 06:29:39;;;;;;;6.40;5.80;;;23.40;99.90;;;;;;4998515;28;20203;-83
2023/06/27 06:32:06;;;;;;;5.78;5.20;;;23.50;99.90;;;;;;5015782;28;20514;-85
2023/06/27 06:34:31;;;;;;;5.50;5.00;;;23.50;99.60;;;;;;4998509;28;20187;-82
2023/06/27 06:36:58;;;;;;;5.90;5.30;;;23.60;99.40;;;;;;5016361;28;20177;-84
2023/06/27 06:39:23;;;;;;;4.82;4.43;;;23.70;99.20;;;;;;5015518;28;20169;-86
2023/06/27 06:41:49;;;;;;;6.97;5.40;;;23.80;99.10;;;;;;4997877;28;20253;-84
2023/06/27 06:44:15;;;;;;;5.32;4.90;;;23.80;98.70;;;;;;4997377;28;20732;-84
2023/06/27 06:46:41;;;;;;;6.55;4.30;;;23.80;98.50;;;;;;5016052;28;20530;-85
2023/06/27 06:49:08;;;;;;;6.15;4.97;;;23.80;98.20;;;;;;5015292;28;20181;-85
2023/06/27 06:51:34;;;;;;;6.47;4.68;;;23.80;98.30;;;;;;4998820;28;20192;-86
2023/06/27 06:53:59;;;;;;;5.70;4.72;;;23.80;98.20;;;;;;5014820;28;20173;-84
2023/06/27 06:56:25;;;;;;;4.93;4.38;;;23.80;98.40;;;;;;5014741;28;20553;-85
2023/06/27 06:58:51;;;;;;;5.28;4.78;;;23.80;98.60;;;;;;5015849;28;20192;-86
2023/06/27 07:01:18;;;;;;;4.70;4.40;;;23.80;98.00;;;;;;5020227;28;20227;-85
2023/06/27 07:03:43;;;;;;;5.28;4.85;;;23.80;97.90;;;;;;5015627;28;20165;-86
2023/06/27 07:06:09;;;;;;;4.88;4.40;;;23.70;98.00;;;;;;4999467;28;20272;-84
2023/06/27 07:08:35;;;;;;;5.13;4.72;;;23.80;98.20;;;;;;5019038;28;20180;-85
2023/06/27 07:11:01;;;;;;;5.03;4.63;;;23.80;98.00;;;;;;5015203;28;20461;-84
2023/06/27 07:13:27;;;;;;;4.75;4.45;;;23.80;98.00;;;;;;5014622;28;20261;-84
2023/06/27 07:15:52;;;;;;;5.53;3.83;;;23.80;98.20;;;;;;5014669;28;20621;-84
2023/06/27 07:18:18;;;;;;;6.80;4.82;;;23.80;98.30;;;;;;5015431;28;20229;-86
2023/06/27 07:20:44;;;;;;;4.93;4.50;;;24.00;98.80;;;;;;5014552;28;20607;-86
2023/06/27 07:23:09;;;;;;;4.55;4.18;;;24.10;98.60;;;;;;5014247;28;20252;-85
2023/06/27 07:25:38;;;;;;;5.10;4.70;;;24.30;98.00;;;;;;5013881;28;20224;-85
2023/06/27 07:28:04;;;;;;;5.03;4.45;;;24.30;97.90;;;;;;4996683;28;20173;-83
2023/06/27 07:30:30;;;;;;;6.28;5.30;;;24.30;98.30;;;;;;5014432;28;20588;-85
2023/06/27 07:32:55;;;;;;;4.90;4.40;;;24.40;98.50;;;;;;4996555;28;20228;-83
2023/06/27 07:35:21;;;;;;;4.75;4.35;;;24.30;98.50;;;;;;5015933;28;20174;-85
2023/06/27 07:37:47;;;;;;;4.85;4.45;;;24.30;97.60;;;;;;5016885;28;20251;-83
2023/06/27 07:40:12;;;;;;;4.75;4.18;;;24.20;98.00;;;;;;5016421;28;20570;-84
2023/06/27 07:42:38;;;;;;;5.50;4.07;;;24.10;97.80;;;;;;4997011;28;20263;-84
2023/06/27 07:45:05;;;;;;;3.97;3.58;;;24.10;97.60;;;;;;4995662;28;20551;-85
2023/06/27 07:47:30;;;;;;;4.38;4.07;;;24.10;97.30;;;;;;5013884;28;20169;-85
2023/06/27 07:49:56;;;;;;;4.28;3.97;;;24.10;96.90;;;;;;5013990;28;20638;-85
2023/06/27 07:52:22;;;;;;;4.03;3.60;;;24.30;96.70;;;;;;5014045;28;20179;-84
2023/06/27 07:54:48;;;;;;;4.25;3.95;;;24.40;96.90;;;;;;5013924;28;20227;-84
2023/06/27 07:57:14;;;;;;;4.63;4.22;;;24.50;96.60;;;;;;5013673;28;20169;-85
2023/06/27 07:59:41;;;;;;;4.07;3.78;;;24.60;96.30;;;;;;5030597;28;20245;-83
2023/06/27 08:02:07;;;;;;;4.30;4.00;;;24.60;96.20;;;;;;5018633;28;20173;-85
2023/06/27 08:04:33;;;;;;;4.28;3.97;;;24.70;95.90;;;;;;5014309;28;20540;-84
2023/06/27 08:06:58;;;;;;;5.00;4.50;;;24.60;95.50;;;;;;5016200;28;20173;-82
2023/06/27 08:09:24;;;;;;;4.40;4.05;;;24.60;95.70;;;;;;5014728;28;20252;-84
2023/06/27 08:11:51;;;;;;;3.88;3.63;;;24.40;95.40;;;;;;5036847;28;20169;-83
2023/06/27 08:14:17;;;;;;;4.53;4.22;;;24.50;95.60;;;;;;5017042;28;20177;-85
2023/06/27 08:16:43;;;;;;;4.15;3.75;;;24.40;95.80;;;;;;5013552;28;20176;-85
2023/06/27 08:19:09;;;;;;;4.57;4.18;;;24.40;95.40;;;;;;5013439;28;20177;-84
2023/06/27 08:21:34;;;;;;;4.47;4.13;;;24.40;95.20;;;;;;5013801;28;20205;-84
2023/06/27 08:24:03;;;;;;;4.65;4.20;;;24.20;95.50;;;;;;4997096;28;20268;-85
2023/06/27 08:26:29;;;;;;;4.72;4.22;;;24.10;95.70;;;;;;5013400;28;20288;-84
2023/06/27 08:28:55;;;;;;;5.13;4.57;;;23.90;96.00;;;;;;5014097;28;20671;-83
2023/06/27 08:31:21;;;;;;;4.80;4.30;;;23.60;96.60;;;;;;5018783;28;20256;-84
2023/06/27 08:33:47;;;;;;;4.55;3.95;;;23.60;97.30;;;;;;5019088;28;20178;-84
2023/06/27 08:36:13;;;;;;;6.68;4.13;;;22.90;98.30;;;;;;5014980;28;20177;-84
2023/06/27 08:38:39;;;;;;;4.68;4.20;;;23.20;99.30;;;;;;5016247;28;20177;-85
2023/06/27 08:41:04;;;;;;;4.50;4.20;;;22.80;99.90;;;;;;5015225;28;20208;-85
2023/06/27 08:43:30;;;;;;;6.53;5.27;;;22.50;99.90;;;;;;5013844;28;20251;-85
2023/06/27 08:45:57;;;;;;;4.90;4.30;;;22.30;99.90;;;;;;5014096;28;20173;-85
2023/06/27 08:48:24;;;;;;;5.13;4.60;;;22.10;99.90;;;;;;5013881;28;20168;-84
2023/06/27 08:50:54;;;;;;;7.00;5.00;;;22.10;99.90;;;;;;4996583;28;20235;-85
2023/06/27 08:53:27;;;;;;;5.93;4.90;;;21.70;99.90;;;;;;5015274;28;20169;-84
2023/06/27 08:56:04;;;;;;;6.73;5.00;;;21.40;99.90;;;;;;5017610;28;20185;-83
2023/06/27 08:58:52;;;;;;;6.23;5.23;;;21.30;99.90;;;;;;5000450;28;20208;-83
2023/06/27 09:01:18;;;;;;;6.07;5.47;;;21.20;99.90;;;;;;5018391;28;20205;-85
2023/06/27 09:03:44;;;;;;;6.23;5.70;;;21.20;99.90;;;;;;5000466;28;20645;-84
2023/06/27 09:06:12;;;;;;;8.37;5.10;;;21.10;99.90;;;;;;5000626;28;20208;-84
2023/06/27 09:08:39;;;;;;;6.00;5.40;;;21.00;99.90;;;;;;5016573;28;20173;-83
2023/06/27 09:11:08;;;;;;;7.73;5.10;;;21.00;99.90;;;;;;5017246;28;20173;-83
2023/06/27 09:13:36;;;;;;;6.53;4.70;;;21.00;99.90;;;;;;5019490;28;20169;-83
2023/06/27 09:16:06;;;;;;;5.40;4.90;;;21.10;99.90;;;;;;5022880;28;20192;-84
2023/06/27 09:18:34;;;;;;;6.90;4.67;;;21.20;99.90;;;;;;5017415;28;20653;-83
2023/06/27 09:21:00;;;;;;;5.10;4.70;;;21.40;99.90;;;;;;5016632;28;20592;-82
2023/06/27 09:23:28;;;;;;;6.10;5.13;;;21.60;99.90;;;;;;5022226;28;20165;-83
2023/06/27 09:26:10;;;;;;;6.73;4.80;;;21.60;99.90;;;;;;5039146;28;20212;-84
2023/06/27 09:28:49;;;;;;;4.70;4.33;;;21.60;99.90;;;;;;5018232;28;20169;-84
2023/06/27 09:31:20;;;;;;;4.97;4.57;;;21.60;99.90;;;;;;5020312;28;20192;-83
2023/06/27 09:33:47;;;;;;;5.33;4.77;;;21.50;99.90;;;;;;5017509;28;20265;-84
2023/06/27 09:36:31;;;;;;;5.00;4.60;;;21.40;99.90;;;;;;5000338;28;20177;-85
2023/06/27 09:39:07;;;;;;;5.27;4.77;;;21.70;99.90;;;;;;5035492;28;20192;-84
2023/06/27 09:41:48;;;;;;;6.03;4.57;;;21.90;99.90;;;;;;5023962;28;20196;-85
2023/06/27 09:44:19;;;;;;;5.30;4.80;;;21.80;99.90;;;;;;5017853;28;20316;-85
2023/06/27 09:46:49;;;;;;;6.00;5.30;;;21.70;99.90;;;;;;5018776;28;20166;-85
2023/06/27 09:49:15;;;;;;;6.33;5.03;;;21.60;99.90;;;;;;5008030;28;20177;-85
2023/06/27 09:51:45;;;;;;;5.10;4.60;;;21.30;99.90;;;;;;5013745;28;20181;-85
2023/06/27 09:54:17;;;;;;;4.87;4.47;;;21.20;99.90;;;;;;5019313;28;20169;-84
2023/06/27 09:56:43;;;;;;;5.47;4.97;;;21.20;99.90;;;;;;5001475;28;20189;-84
2023/06/27 09:59:12;;;;;;;5.23;4.73;;;21.30;99.90;;;;;;5019156;28;20169;-85
2023/06/27 10:01:39;;;;;;;5.33;4.93;;;21.30;99.90;;;;;;5017282;28;20208;-83
2023/06/27 10:04:07;;;;;;;5.07;4.63;;;21.30;99.90;;;;;;5021579;28;20272;-85
2023/06/27 10:06:33;;;;;;;5.77;5.10;;;21.30;99.90;;;;;;5022648;28;20188;-86
2023/06/27 10:09:00;;;;;;;4.90;4.43;;;21.40;99.90;;;;;;5031920;28;20208;-85
2023/06/27 10:11:27;;;;;;;5.00;4.60;;;21.60;99.90;;;;;;5031669;28;20165;-85
2023/06/27 10:13:53;;;;;;;7.80;5.03;;;21.60;99.90;;;;;;5030497;28;20237;-85
2023/06/27 10:16:20;;;;;;;4.40;3.97;;;21.70;99.90;;;;;;5014457;28;20248;-83
2023/06/27 10:18:49;;;;;;;5.20;4.70;;;22.10;99.90;;;;;;5017700;28;20181;-84
2023/06/27 10:21:16;;;;;;;4.97;4.57;;;22.30;99.90;;;;;;5032244;28;20260;-85
2023/06/27 10:23:46;;;;;;;5.13;4.30;;;22.40;99.90;;;;;;5005444;28;20182;-87
2023/06/27 10:26:12;;;;;;;5.33;4.93;;;22.50;99.90;;;;;;5016529;28;20719;-86
2023/06/27 10:28:38;;;;;;;5.53;4.72;;;22.50;99.90;;;;;;5016935;28;20173;-84
2023/06/27 10:31:04;;;;;;;5.00;4.60;;;22.50;99.90;;;;;;5016947;28;20288;-85
2023/06/27 10:33:32;;;;;;;5.93;5.20;;;22.60;99.90;;;;;;5003382;28;20560;-85
2023/06/27 10:36:01;;;;;;;6.13;5.53;;;22.80;99.90;;;;;;5020639;28;20220;-86
2023/06/27 10:38:40;;;;;;;5.72;4.68;;;22.80;99.90;;;;;;5017751;28;20174;-86
2023/06/27 10:41:12;;;;;;;7.10;5.25;;;23.00;99.90;;;;;;5015780;28;20197;-87
2023/06/27 10:43:47;;;;;;;7.20;5.80;;;23.20;99.90;;;;;;5020627;28;20192;-81
2023/06/27 10:46:27;;;;;;;5.90;5.32;;;23.30;99.90;;;;;;4997932;28;20180;-85
2023/06/27 10:49:03;;;;;;;7.05;5.78;;;23.40;99.90;;;;;;5014755;28;20161;-84
2023/06/27 10:51:41;;;;;;;6.13;5.53;;;23.40;99.90;;;;;;5015036;28;20215;-86
2023/06/27 10:54:15;;;;;;;5.90;5.30;;;23.50;99.90;;;;;;5014986;28;20245;-85
2023/06/27 10:56:50;;;;;;;5.05;4.63;;;23.60;99.90;;;;;;4997237;28;20180;-86
2023/06/27 10:59:18;;;;;;;6.35;4.78;;;23.60;99.90;;;;;;5015648;28;20551;-86
2023/06/27 11:01:50;;;;;;;5.45;4.95;;;23.60;99.90;;;;;;4998836;28;20248;-85
2023/06/27 11:04:16;;;;;;;5.03;4.47;;;23.50;99.90;;;;;;5000566;28;20180;-83
2023/06/27 11:06:45;;;;;;;5.55;4.72;;;23.50;99.90;;;;;;5014780;28;20256;-84
2023/06/27 11:09:17;;;;;;;5.50;5.00;;;23.30;99.90;;;;;;5014870;28;20172;-83
2023/06/27 11:12:08;;;;;;;5.40;4.90;;;23.20;99.90;;;;;;5014981;28;20162;-86
2023/06/27 11:14:38;;;;;;;6.53;5.00;;;23.10;99.90;;;;;;5020142;28;20179;-84
2023/06/27 11:17:04;;;;;;;5.18;4.45;;;22.90;99.90;;;;;;5030671;28;20233;-83
2023/06/27 11:19:34;;;;;;;5.10;4.65;;;22.80;99.90;;;;;;5019124;28;20177;-84
2023/06/27 11:22:01;;;;;;;5.03;4.55;;;22.70;99.90;;;;;;5015240;28;20177;-84
2023/06/27 11:24:29;;;;;;;5.00;4.57;;;22.60;99.90;;;;;;5014817;28;20557;-83
2023/06/27 11:26:56;;;;;;;4.90;4.50;;;22.50;99.90;;;;;;5017157;28;20281;-83
2023/06/27 11:29:23;;;;;;;4.70;4.30;;;22.40;99.90;;;;;;5019807;28;20256;-85
2023/06/27 11:31:49;;;;;;;5.20;4.70;;;22.30;99.90;;;;;;5019665;28;20204;-85
2023/06/27 11:34:16;;;;;;;5.30;4.80;;;22.00;99.90;;;;;;5021139;28;20173;-83
2023/06/27 11:36:43;;;;;;;7.03;6.37;;;21.80;99.90;;;;;;4988577;28;20193;-81
2023/06/27 11:39:13;;;;;;;7.37;6.53;;;21.50;99.90;;;;;;5004388;28;20173;-82
2023/06/27 11:41:44;;;;;;;7.50;6.80;;;21.60;99.90;;;;;;5004444;28;20205;-82
2023/06/27 11:44:15;;;;;;;7.57;6.80;;;21.70;99.90;;;;;;5005296;28;20184;-83
2023/06/27 11:46:51;;;;;;;7.23;6.53;;;21.70;99.90;;;;;;5021556;28;20187;-83
2023/06/27 11:49:22;;;;;;;7.73;7.03;;;21.60;99.90;;;;;;5023117;28;20165;-84
2023/06/27 11:51:47;;;;;;;7.97;7.17;;;21.70;99.90;;;;;;5024251;28;20172;-83
2023/06/27 11:54:17;;;;;;;6.97;6.33;;;21.70;99.90;;;;;;5005696;28;20181;-82
2023/06/27 11:56:43;;;;;;;7.33;6.70;;;21.80;99.90;;;;;;5024751;28;20189;-84
2023/06/27 11:59:08;;;;;;;7.83;6.53;;;21.70;99.90;;;;;;5007555;28;20177;-84
2023/06/27 12:01:44;;;;;;;7.27;6.67;;;21.70;99.90;;;;;;5020115;28;20220;-86
2023/06/27 12:04:15;;;;;;;8.07;6.80;;;21.60;99.90;;;;;;5022422;28;20179;-85
2023/06/27 12:06:42;;;;;;;7.43;6.73;;;21.60;99.90;;;;;;5019534;28;20236;-85
2023/06/27 12:09:19;;;;;;;7.13;6.53;;;21.40;99.90;;;;;;5016704;28;20268;-85
2023/06/27 12:11:51;;;;;;;6.60;6.00;;;21.20;99.90;;;;;;4996611;28;20181;-86
2023/06/27 12:14:24;;;;;;;8.07;6.70;;;21.30;99.90;;;;;;5013717;28;20204;-85
2023/06/27 12:16:50;;;;;;;7.67;6.87;;;21.30;99.90;;;;;;5013612;28;20727;-85
2023/06/27 12:19:19;;;;;;;7.20;6.50;;;21.40;99.90;;;;;;5013279;28;20181;-85
2023/06/27 12:21:46;;;;;;;7.10;6.40;;;21.40;99.90;;;;;;5013283;28;20209;-84
2023/06/27 12:24:11;;;;;;;6.63;5.93;;;21.20;99.90;;;;;;5013161;28;20173;-85
2023/06/27 12:26:37;;;;;;;6.97;6.37;;;21.20;99.90;;;;;;5013083;28;20298;-84
2023/06/27 12:29:05;;;;;;;8.43;6.53;;;21.30;99.90;;;;;;5013527;28;20261;-87
2023/06/27 12:31:31;;;;;;;6.60;6.10;;;21.40;99.90;;;;;;5016986;28;20177;-86
2023/06/27 12:34:00;;;;;;;6.97;6.33;;;21.40;99.90;;;;;;5017327;28;20228;-84
2023/06/27 12:36:27;;;;;;;7.00;6.40;;;21.40;99.90;;;;;;4999613;28;20181;-82
2023/06/27 12:38:53;;;;;;;7.37;6.77;;;21.40;99.90;;;;;;5017245;28;20180;-86
2023/06/27 12:41:21;;;;;;;8.20;6.73;;;21.30;99.90;;;;;;4999358;28;20217;-82
2023/06/27 12:43:47;;;;;;;7.00;6.40;;;21.30;99.90;;;;;;5016841;28;20184;-85
2023/06/27 12:46:13;;;;;;;7.03;6.43;;;21.30;99.90;;;;;;5016895;28;20632;-84
2023/06/27 12:48:43;;;;;;;7.20;6.20;;;21.30;99.90;;;;;;5016898;28;20177;-82